Time;durP1;ratioP1;P1;durP2;ratioP2;P2;SDS_P1;SDS_P2;PMS_P1;PMS_P2;Temp;Humidity;BMP_temperature;BMP_pressure;BME280_temperature;BME280_humidity;BME280_pressure;Samples;Min_cycle;Max_cycle;Signal;HPM_P1;HPM_P2
2022/08/18 00:00:15;;;;;;;;;;;18.20;99.90;;;;;;5095523;28;19912;-65
2022/08/18 00:02:41;;;;;;;;;;;18.20;99.90;;;;;;5095482;28;19975;-65
2022/08/18 00:05:08;;;;;;;;;;;18.20;99.90;;;;;;5095398;28;20362;-65
2022/08/18 00:07:33;;;;;;;;;;;18.20;99.90;;;;;;5076943;28;19909;-65
2022/08/18 00:09:59;;;;;;;;;;;18.20;99.90;;;;;;5095024;28;19971;-65
2022/08/18 00:12:28;;;;;;;;;;;18.20;99.90;;;;;;5095215;28;19908;-65
2022/08/18 00:14:54;;;;;;;;;;;18.20;99.90;;;;;;5094933;28;19908;-65
2022/08/18 00:17:20;;;;;;;;;;;18.10;99.90;;;;;;5094911;28;19908;-65
2022/08/18 00:19:46;;;;;;;;;;;18.10;99.90;;;;;;5094813;28;19908;-65
2022/08/18 00:22:12;;;;;;;;;;;18.10;99.90;;;;;;5095162;28;19908;-65
2022/08/18 00:24:38;;;;;;;;;;;18.10;99.90;;;;;;5095054;28;19957;-65
2022/08/18 00:27:04;;;;;;;;;;;18.10;99.90;;;;;;5094985;28;19908;-65
2022/08/18 00:29:30;;;;;;;;;;;18.10;99.90;;;;;;5094953;28;19943;-65
2022/08/18 00:31:55;;;;;;;;;;;18.10;99.90;;;;;;5094555;28;19942;-65
2022/08/18 00:34:21;;;;;;;;;;;18.10;99.90;;;;;;5094300;28;19920;-65
2022/08/18 00:36:46;;;;;;;;;;;18.10;99.90;;;;;;5076490;28;19908;-65
2022/08/18 00:39:12;;;;;;;;;;;18.10;99.90;;;;;;5094740;28;20007;-65
2022/08/18 00:41:38;;;;;;;;;;;18.10;99.90;;;;;;5094702;28;19908;-65
2022/08/18 00:44:03;;;;;;;;;;;18.10;99.90;;;;;;5094668;28;19915;-65
2022/08/18 00:46:32;;;;;;;;;;;18.10;99.90;;;;;;5094368;28;19954;-65
2022/08/18 00:48:57;;;;;;;;;;;18.00;99.90;;;;;;5094575;28;19958;-65
2022/08/18 00:51:43;;;;;;;;;;;18.00;99.90;;;;;;5094275;28;20321;-65
2022/08/18 00:54:13;;;;;;;;;;;18.00;99.90;;;;;;5094041;28;19912;-65
2022/08/18 00:56:47;;;;;;;;;;;17.90;99.90;;;;;;5094445;28;19922;-65
2022/08/18 00:59:32;;;;;;;;;;;17.90;99.90;;;;;;5094111;28;19915;-65
2022/08/18 01:02:01;;;;;;;;;;;17.90;99.90;;;;;;5094144;28;19961;-65
2022/08/18 01:04:37;;;;;;;;;;;17.90;99.90;;;;;;5094310;28;19931;-65
2022/08/18 01:07:15;;;;;;;;;;;17.90;99.90;;;;;;5094157;28;19975;-65
2022/08/18 01:09:40;;;;;;;;;;;17.90;99.90;;;;;;5075970;28;19908;-65
2022/08/18 01:12:07;;;;;;;;;;;17.80;99.90;;;;;;5093966;28;19909;-65
2022/08/18 01:14:33;;;;;;;;;;;17.70;99.90;;;;;;5093812;28;19923;-65
2022/08/18 01:22:48;;;;;;;;;;;17.50;99.90;;;;;;5093609;28;19912;-65
2022/08/18 01:28:02;;;;;;;;;;;17.50;99.90;;;;;;5093581;28;19915;-65
2022/08/18 01:30:28;;;;;;;;;;;17.50;99.90;;;;;;5093700;28;19916;-65
2022/08/18 01:32:54;;;;;;;;;;;17.40;99.90;;;;;;5093415;28;19963;-65
2022/08/18 01:35:22;;;;;;;;;;;17.40;99.90;;;;;;5093946;28;20315;-65
2022/08/18 01:37:47;;;;;;;;;;;17.40;99.90;;;;;;5093946;28;19914;-65
2022/08/18 01:40:14;;;;;;;;;;;17.40;99.90;;;;;;5093621;28;20401;-65
2022/08/18 01:42:42;;;;;;;;;;;17.30;99.90;;;;;;5093698;28;19908;-65
2022/08/18 01:45:08;;;;;;;;;;;17.30;99.90;;;;;;5093949;28;20261;-65
2022/08/18 01:47:34;;;;;;;;;;;17.30;99.90;;;;;;5093559;28;19915;-65
2022/08/18 01:50:00;;;;;;;;;;;17.20;99.90;;;;;;5093819;28;20321;-65
2022/08/18 01:52:28;;;;;;;;;;;17.20;99.90;;;;;;5093716;28;19909;-65
2022/08/18 01:54:56;;;;;;;;;;;17.10;99.90;;;;;;5093752;28;20022;-65
2022/08/18 01:57:22;;;;;;;;;;;17.10;99.90;;;;;;5093565;28;20263;-65
2022/08/18 01:59:48;;;;;;;;;;;17.00;99.90;;;;;;5093760;28;19908;-65
2022/08/18 02:02:16;;;;;;;;;;;17.10;99.90;;;;;;5093459;28;20286;-65
2022/08/18 02:04:42;;;;;;;;;;;17.00;99.90;;;;;;5093499;28;19915;-65
2022/08/18 02:07:08;;;;;;;;;;;17.00;99.90;;;;;;5093659;28;20277;-65
2022/08/18 02:09:36;;;;;;;;;;;17.00;99.90;;;;;;5093618;28;19908;-65
2022/08/18 02:12:02;;;;;;;;;;;17.00;99.90;;;;;;5093615;28;20274;-65
2022/08/18 02:14:28;;;;;;;;;;;17.00;99.90;;;;;;5093536;28;20441;-65
2022/08/18 02:16:55;;;;;;;;;;;17.00;99.90;;;;;;5093532;28;20030;-65
2022/08/18 02:19:21;;;;;;;;;;;17.00;99.90;;;;;;5075937;28;20330;-65
2022/08/18 02:21:46;;;;;;;;;;;16.90;99.90;;;;;;5097211;28;19994;-65
2022/08/18 02:24:12;;;;;;;;;;;16.90;99.90;;;;;;5097068;28;19919;-65
2022/08/18 02:26:37;;;;;;;;;;;16.90;99.90;;;;;;5097016;28;19908;-65
2022/08/18 02:29:02;;;;;;;;;;;16.90;99.90;;;;;;5096917;28;19939;-65
2022/08/18 02:31:28;;;;;;;;;;;16.90;99.90;;;;;;5096978;28;19926;-65
2022/08/18 02:33:53;;;;;;;;;;;16.90;99.90;;;;;;5096596;28;20006;-65
2022/08/18 02:36:20;;;;;;;;;;;16.90;99.90;;;;;;5097124;28;19908;-65
2022/08/18 02:38:46;;;;;;;;;;;16.90;99.90;;;;;;5096730;28;19908;-65
2022/08/18 02:41:13;;;;;;;;;;;16.90;99.90;;;;;;5097030;28;19957;-65
2022/08/18 02:43:40;;;;;;;;;;;16.80;99.90;;;;;;5078812;28;20336;-65
2022/08/18 02:46:06;;;;;;;;;;;16.70;99.90;;;;;;5096909;28;20380;-65
2022/08/18 02:48:35;;;;;;;;;;;16.90;99.90;;;;;;5096864;28;19939;-65
2022/08/18 02:51:01;;;;;;;;;;;16.90;99.90;;;;;;5096857;28;19912;-65
2022/08/18 02:53:27;;;;;;;;;;;16.90;99.90;;;;;;5096653;28;20010;-65
2022/08/18 02:55:53;;;;;;;;;;;16.80;99.90;;;;;;5078359;28;20285;-65
2022/08/18 02:58:19;;;;;;;;;;;16.90;99.90;;;;;;5096689;28;19931;-65
2022/08/18 03:00:45;;;;;;;;;;;16.90;99.90;;;;;;5078238;28;19908;-65
2022/08/18 03:03:12;;;;;;;;;;;16.80;99.90;;;;;;5096416;28;19908;-65
2022/08/18 03:05:37;;;;;;;;;;;16.80;99.90;;;;;;5096543;28;20017;-65
2022/08/18 03:08:03;;;;;;;;;;;16.80;99.90;;;;;;5096488;28;19908;-65
2022/08/18 03:10:29;;;;;;;;;;;16.90;99.90;;;;;;5096428;28;20414;-65
2022/08/18 03:12:54;;;;;;;;;;;17.00;99.90;;;;;;5096117;28;20374;-65
2022/08/18 03:15:20;;;;;;;;;;;17.10;99.90;;;;;;5096115;28;19908;-65
2022/08/18 03:17:45;;;;;;;;;;;17.10;99.90;;;;;;5096024;28;19934;-65
2022/08/18 03:20:11;;;;;;;;;;;17.20;99.90;;;;;;5096001;28;19908;-65
2022/08/18 03:22:37;;;;;;;;;;;17.20;99.90;;;;;;5096207;28;19933;-65
2022/08/18 03:25:03;;;;;;;;;;;17.30;99.90;;;;;;5096188;28;19912;-65
2022/08/18 03:27:28;;;;;;;;;;;17.30;99.90;;;;;;5096177;28;20362;-65
2022/08/18 03:29:54;;;;;;;;;;;17.30;99.90;;;;;;5095762;28;19908;-65
2022/08/18 03:32:20;;;;;;;;;;;17.40;99.90;;;;;;5095735;28;19908;-65
2022/08/18 03:34:45;;;;;;;;;;;17.50;99.90;;;;;;5078040;28;19916;-65
2022/08/18 03:37:11;;;;;;;;;;;17.50;99.90;;;;;;5096252;28;19998;-65
2022/08/18 03:39:36;;;;;;;;;;;17.60;99.90;;;;;;5095934;28;20421;-65
2022/08/18 03:42:02;;;;;;;;;;;17.70;99.90;;;;;;5095868;28;19998;-65
2022/08/18 03:44:29;;;;;;;;;;;17.70;99.90;;;;;;5095585;28;19908;-65
2022/08/18 03:46:54;;;;;;;;;;;17.80;99.90;;;;;;5095785;28;19916;-65
2022/08/18 03:49:20;;;;;;;;;;;17.80;99.90;;;;;;5095453;28;20358;-66
2022/08/18 03:51:46;;;;;;;;;;;17.80;99.90;;;;;;5095742;28;19935;-65
2022/08/18 03:54:12;;;;;;;;;;;17.80;99.90;;;;;;5095602;28;19912;-66
2022/08/18 03:56:38;;;;;;;;;;;17.80;99.90;;;;;;5095377;28;19908;-66
2022/08/18 03:59:07;;;;;;;;;;;17.80;99.90;;;;;;5095621;28;19949;-65
2022/08/18 04:01:35;;;;;;;;;;;17.80;99.90;;;;;;5095530;28;20365;-65
2022/08/18 04:04:02;;;;;;;;;;;17.80;99.90;;;;;;5095497;28;20263;-65
2022/08/18 04:06:29;;;;;;;;;;;17.80;99.90;;;;;;5095412;28;19954;-65
2022/08/18 04:08:56;;;;;;;;;;;17.90;99.90;;;;;;5095044;28;19916;-65
2022/08/18 04:11:22;;;;;;;;;;;17.90;99.90;;;;;;5095329;28;19908;-63
2022/08/18 04:13:48;;;;;;;;;;;17.90;99.90;;;;;;5095207;28;19958;-63
2022/08/18 04:16:14;;;;;;;;;;;17.90;99.90;;;;;;5094841;28;20286;-63
2022/08/18 04:18:39;;;;;;;;;;;17.90;99.90;;;;;;5094839;28;19908;-64
2022/08/18 04:21:06;;;;;;;;;;;17.90;99.90;;;;;;5095025;28;19908;-63
2022/08/18 04:23:33;;;;;;;;;;;18.00;99.90;;;;;;5095094;28;19908;-63
2022/08/18 04:25:59;;;;;;;;;;;18.00;99.90;;;;;;5094998;28;19908;-63
2022/08/18 04:28:25;;;;;;;;;;;18.00;99.90;;;;;;5094682;28;20286;-64
2022/08/18 04:30:50;;;;;;;;;;;18.00;99.90;;;;;;5094720;28;19908;-64
2022/08/18 04:33:16;;;;;;;;;;;18.00;99.90;;;;;;5094295;28;19920;-63
2022/08/18 04:35:42;;;;;;;;;;;18.10;99.90;;;;;;5094548;28;20374;-63
2022/08/18 04:38:08;;;;;;;;;;;18.10;99.90;;;;;;5094768;28;19930;-63
2022/08/18 04:40:35;;;;;;;;;;;18.10;99.90;;;;;;5094713;28;19958;-63
2022/08/18 04:43:01;;;;;;;;;;;18.10;99.90;;;;;;5093937;28;19915;-65
2022/08/18 04:45:27;;;;;;;;;;;18.10;99.90;;;;;;5076595;28;20282;-65
2022/08/18 04:47:52;;;;;;;;;;;18.20;99.90;;;;;;5094587;28;20433;-65
2022/08/18 04:50:18;;;;;;;;;;;18.10;99.90;;;;;;5076216;28;19947;-65
2022/08/18 04:55:29;;;;;;;;;;;18.20;99.90;;;;;;5094009;28;20298;-64
2022/08/18 04:57:56;;;;;;;;;;;18.20;99.90;;;;;;5094144;28;19908;-64
2022/08/18 05:00:22;;;;;;;;;;;18.20;99.90;;;;;;5094425;28;19912;-64
2022/08/18 05:02:48;;;;;;;;;;;18.20;99.90;;;;;;5094067;28;19991;-65
2022/08/18 05:05:13;;;;;;;;;;;18.20;99.90;;;;;;5094317;28;19908;-64
2022/08/18 05:07:43;;;;;;;;;;;18.30;99.90;;;;;;5094257;28;19912;-64
2022/08/18 05:10:11;;;;;;;;;;;18.30;99.90;;;;;;5093926;28;19908;-64
2022/08/18 05:12:36;;;;;;;;;;;18.30;99.90;;;;;;5094144;28;19908;-64
2022/08/18 05:15:02;;;;;;;;;;;18.30;99.90;;;;;;5093871;28;20263;-64
2022/08/18 05:17:27;;;;;;;;;;;18.30;99.90;;;;;;5094038;28;19958;-64
2022/08/18 05:19:53;;;;;;;;;;;18.30;99.90;;;;;;5094114;28;19998;-64
2022/08/18 05:22:19;;;;;;;;;;;18.30;99.90;;;;;;5094092;28;19908;-64
2022/08/18 05:24:45;;;;;;;;;;;18.40;99.90;;;;;;5093734;28;19970;-64
2022/08/18 05:27:12;;;;;;;;;;;18.50;99.90;;;;;;5093767;28;20251;-64
2022/08/18 05:29:37;;;;;;;;;;;18.50;99.90;;;;;;5093945;28;19915;-64
2022/08/18 05:32:06;;;;;;;;;;;18.50;99.90;;;;;;5093704;28;19908;-64
2022/08/18 05:34:32;;;;;;;;;;;18.40;99.90;;;;;;5093431;28;20053;-64
2022/08/18 05:37:18;;;;;;;;;;;18.50;99.90;;;;;;5093912;28;19999;-64
2022/08/18 05:39:51;;;;;;;;;;;18.50;99.90;;;;;;5093451;28;19908;-64
2022/08/18 05:42:18;;;;;;;;;;;18.50;99.90;;;;;;5093640;28;19995;-64
2022/08/18 05:44:47;;;;;;;;;;;18.50;99.90;;;;;;5093837;28;19915;-64
2022/08/18 05:47:18;;;;;;;;;;;18.40;99.90;;;;;;5075563;28;19912;-66
2022/08/18 05:49:46;;;;;;;;;;;18.40;99.90;;;;;;5093796;28;19916;-64
2022/08/18 05:52:14;;;;;;;;;;;18.30;99.90;;;;;;5093440;28;20361;-64
2022/08/18 05:57:29;;;;;;;;;;;18.30;99.90;;;;;;5097351;28;19915;-64
2022/08/18 05:59:55;;;;;;;;;;;18.40;99.90;;;;;;5097550;28;19908;-64
2022/08/18 06:02:39;;;;;;;;;;;18.50;99.90;;;;;;5097763;28;19912;-64
2022/08/18 06:05:06;;;;;;;;;;;18.50;99.90;;;;;;5097388;28;19908;-64
2022/08/18 06:07:36;;;;;;;;;;;18.70;99.90;;;;;;5097397;28;19931;-64
2022/08/18 06:10:04;;;;;;;;;;;18.80;99.90;;;;;;5097597;28;20388;-64
2022/08/18 06:12:32;;;;;;;;;;;18.70;99.90;;;;;;5097596;28;20326;-64
2022/08/18 06:15:01;;;;;;;;;;;18.70;99.90;;;;;;5097492;28;19913;-64
2022/08/18 06:17:34;;;;;;;;;;;18.60;99.90;;;;;;5097454;28;20366;-64
2022/08/18 06:20:08;;;;;;;;;;;18.60;99.90;;;;;;5097150;28;19908;-64
2022/08/18 06:22:42;;;;;;;;;;;18.60;99.90;;;;;;5097408;28;20426;-65
2022/08/18 06:25:15;;;;;;;;;;;18.70;99.90;;;;;;5097348;28;20381;-64
2022/08/18 06:27:54;;;;;;;;;;;18.70;99.90;;;;;;5096668;28;19918;-65
2022/08/18 06:30:23;;;;;;;;;;;18.70;99.90;;;;;;5092496;28;19919;-64
2022/08/18 06:32:59;;;;;;;;;;;18.80;99.90;;;;;;5096754;28;19916;-65
2022/08/18 06:35:45;;;;;;;;;;;18.80;99.90;;;;;;5096533;28;19912;-65
2022/08/18 06:38:49;;;;;;;;;;;18.80;99.90;;;;;;5094836;28;20281;-64
2022/08/18 06:41:19;;;;;;;;;;;18.80;99.90;;;;;;5080752;28;19916;-64
2022/08/18 06:44:05;;;;;;;;;;;18.80;99.90;;;;;;5096420;28;20011;-65
2022/08/18 06:46:50;;;;;;;;;;;18.80;99.90;;;;;;5095992;28;19943;-64
2022/08/18 06:49:21;;;;;;;;;;;18.80;99.90;;;;;;5076005;28;19962;-64
2022/08/18 06:51:47;;;;;;;;;;;18.90;99.90;;;;;;5085546;28;19908;-64
2022/08/18 06:56:57;;;;;;;;;;;18.90;99.90;;;;;;5070943;28;19920;-64
2022/08/18 06:59:30;;;;;;;;;;;19.00;99.90;;;;;;5070900;28;20007;-64
2022/08/18 07:02:00;;;;;;;;;;;19.10;99.90;;;;;;5070985;28;19909;-64
2022/08/18 07:04:32;;;;;;;;;;;19.10;99.90;;;;;;5070975;28;20329;-64
2022/08/18 07:06:57;;;;;;;;;;;19.20;99.90;;;;;;5070999;28;19944;-64
2022/08/18 07:09:24;;;;;;;;;;;19.30;99.90;;;;;;5070981;28;20398;-64
2022/08/18 07:11:59;;;;;;;;;;;19.30;99.90;;;;;;5070922;28;20484;-65
2022/08/18 07:14:27;;;;;;;;;;;19.40;99.90;;;;;;5070661;28;19967;-64
2022/08/18 07:17:12;;;;;;;;;;;19.40;99.90;;;;;;5070852;28;20324;-65
2022/08/18 07:19:38;;;;;;;;;;;19.50;99.90;;;;;;5070415;28;20287;-64
2022/08/18 07:22:06;;;;;;;;;;;19.50;99.90;;;;;;5070680;28;19909;-64
2022/08/18 07:24:33;;;;;;;;;;;19.60;99.90;;;;;;5070733;28;19908;-64
2022/08/18 07:27:04;;;;;;;;;;;19.60;99.90;;;;;;5070587;28;20294;-64
2022/08/18 07:29:31;;;;;;;;;;;19.70;99.90;;;;;;5070346;28;19916;-64
2022/08/18 07:31:58;;;;;;;;;;;19.60;99.90;;;;;;5069037;28;19932;-64
2022/08/18 07:34:27;;;;;;;;;;;19.70;99.90;;;;;;5070039;28;19909;-64
2022/08/18 07:36:54;;;;;;;;;;;19.90;99.90;;;;;;5070347;28;20008;-64
2022/08/18 07:39:22;;;;;;;;;;;20.10;99.90;;;;;;5070389;28;19942;-65
2022/08/18 07:41:51;;;;;;;;;;;20.00;99.90;;;;;;5050410;28;19913;-64
2022/08/18 07:44:20;;;;;;;;;;;20.00;99.90;;;;;;5050367;28;20414;-64
2022/08/18 07:46:59;;;;;;;;;;;20.00;99.90;;;;;;5050258;28;19920;-64
2022/08/18 07:49:27;;;;;;;;;;;20.20;99.90;;;;;;5050187;28;19924;-64
2022/08/18 07:51:56;;;;;;;;;;;20.20;99.90;;;;;;5065381;28;20351;-65
2022/08/18 07:54:29;;;;;;;;;;;20.30;99.90;;;;;;5050143;28;19909;-64
2022/08/18 07:57:01;;;;;;;;;;;20.30;99.90;;;;;;5054990;28;20591;-65
2022/08/18 07:59:34;;;;;;;;;;;20.20;99.90;;;;;;5064331;28;19931;-64
2022/08/18 08:02:20;;;;;;;;;;;20.30;99.90;;;;;;5069644;28;19942;-65
2022/08/18 08:04:52;;;;;;;;;;;20.50;99.90;;;;;;5068330;28;20287;-65
2022/08/18 08:07:28;;;;;;;;;;;20.70;99.90;;;;;;5063741;28;19922;-64
2022/08/18 08:12:44;;;;;;;;;;;20.80;99.90;;;;;;5070781;28;19913;-65
2022/08/18 08:15:13;;;;;;;;;;;20.90;99.90;;;;;;5077982;28;19917;-64
2022/08/18 08:17:45;;;;;;;;;;;20.70;99.90;;;;;;5070758;28;19908;-64
2022/08/18 08:20:17;;;;;;;;;;;20.50;99.90;;;;;;5070513;28;19931;-65
2022/08/18 08:23:02;;;;;;;;;;;20.60;99.90;;;;;;5068151;28;19966;-65
2022/08/18 08:25:36;;;;;;;;;;;20.60;99.90;;;;;;5069990;28;19912;-64
2022/08/18 08:28:22;;;;;;;;;;;20.70;99.90;;;;;;5070270;28;19966;-65
2022/08/18 08:31:03;;;;;;;;;;;20.80;99.90;;;;;;5070445;28;19916;-64
2022/08/18 08:33:34;;;;;;;;;;;20.70;99.90;;;;;;5069736;28;19919;-64
2022/08/18 08:36:04;;;;;;;;;;;20.90;99.90;;;;;;5070463;28;19909;-65
2022/08/18 08:38:38;;;;;;;;;;;20.90;99.90;;;;;;5070381;28;19913;-65
2022/08/18 08:41:07;;;;;;;;;;;21.10;99.90;;;;;;5070372;28;20356;-65
2022/08/18 08:43:35;;;;;;;;;;;21.30;99.90;;;;;;5069093;28;19909;-65
2022/08/18 08:46:07;;;;;;;;;;;21.70;99.90;;;;;;5075287;28;19954;-65
2022/08/18 08:48:35;;;;;;;;;;;21.60;99.90;;;;;;5051845;28;19913;-65
2022/08/18 08:51:10;;;;;;;;;;;21.80;99.90;;;;;;5070356;28;19916;-65
2022/08/18 08:53:42;;;;;;;;;;;21.80;99.90;;;;;;5069905;28;19916;-64
2022/08/18 08:56:09;;;;;;;;;;;21.80;99.90;;;;;;5070029;28;19919;-65
2022/08/18 08:58:39;;;;;;;;;;;21.90;99.90;;;;;;5070053;28;19908;-64
2022/08/18 09:01:05;;;;;;;;;;;21.80;99.90;;;;;;5070180;28;20375;-64
2022/08/18 09:03:44;;;;;;;;;;;21.90;99.90;;;;;;5069782;28;19908;-65
2022/08/18 09:06:29;;;;;;;;;;;21.70;99.90;;;;;;5050189;28;19979;-65
2022/08/18 09:09:01;;;;;;;;;;;21.70;99.90;;;;;;5052240;28;19908;-65
2022/08/18 09:11:34;;;;;;;;;;;21.70;99.90;;;;;;5080539;28;20015;-64
2022/08/18 09:14:09;;;;;;;;;;;21.70;99.90;;;;;;5089899;28;19913;-65
2022/08/18 09:16:55;;;;;;;;;;;21.80;99.90;;;;;;5089286;28;19916;-65
2022/08/18 09:19:34;;;;;;;;;;;21.60;99.90;;;;;;5089321;28;19912;-64
2022/08/18 09:22:06;;;;;;;;;;;21.70;99.90;;;;;;5086527;28;19948;-65
2022/08/18 09:24:52;;;;;;;;;;;21.60;99.90;;;;;;5068140;28;19964;-65
2022/08/18 09:27:40;;;;;;;;;;;21.60;99.90;;;;;;5075978;28;19915;-65
2022/08/18 09:30:06;;;;;;;;;;;21.60;99.90;;;;;;5073932;28;19959;-67
2022/08/18 09:32:40;;;;;;;;;;;21.60;99.90;;;;;;5054165;28;20383;-65
2022/08/18 09:35:26;;;;;;;;;;;21.60;99.90;;;;;;5070323;28;20015;-65
2022/08/18 09:43:35;;;;;;;;;;;21.90;99.90;;;;;;5075398;28;19956;-65
2022/08/18 09:46:03;;;;;;;;;;;21.80;99.90;;;;;;5075918;28;19912;-65
2022/08/18 09:48:31;;;;;;;;;;;21.80;99.90;;;;;;5075185;28;20010;-65
2022/08/18 09:51:14;;;;;;;;;;;21.60;99.90;;;;;;5075799;28;19920;-64
2022/08/18 09:56:46;;;;;;;;;;;21.60;99.90;;;;;;5090609;27;19922;-65
2022/08/18 09:59:11;;;;;;;;;;;21.70;99.90;;;;;;5090974;28;20371;-65
2022/08/18 10:01:39;;;;;;;;;;;21.80;99.90;;;;;;5090761;28;19999;-65
2022/08/18 10:04:24;;;;;;;;;;;21.90;99.90;;;;;;5090826;28;19912;-65
2022/08/18 10:06:50;;;;;;;;;;;22.10;99.90;;;;;;5086668;28;19913;-65
2022/08/18 10:09:35;;;;;;;;;;;22.20;99.90;;;;;;5090126;28;19908;-66
2022/08/18 10:12:15;;;;;;;;;;;22.10;99.90;;;;;;5085790;28;19920;-65
2022/08/18 10:14:50;;;;;;;;;;;22.00;99.90;;;;;;5074768;28;20371;-65
2022/08/18 10:17:25;;;;;;;;;;;22.00;99.90;;;;;;5089530;28;19982;-65
2022/08/18 10:19:55;;;;;;;;;;;21.90;99.90;;;;;;5084515;28;20012;-65
2022/08/18 10:22:38;;;;;;;;;;;21.90;99.90;;;;;;5090172;28;19920;-65
2022/08/18 10:25:05;;;;;;;;;;;22.10;99.90;;;;;;5088897;28;19939;-65
2022/08/18 10:27:33;;;;;;;;;;;22.10;99.90;;;;;;5090291;28;19909;-65
2022/08/18 10:29:59;;;;;;;;;;;22.30;99.90;;;;;;5090014;28;20041;-65
2022/08/18 10:32:38;;;;;;;;;;;22.40;99.90;;;;;;5088618;28;20385;-65
2022/08/18 10:35:04;;;;;;;;;;;22.50;99.90;;;;;;5090098;28;19916;-65
2022/08/18 10:40:14;;;;;;;;;;;22.50;99.90;;;;;;5090692;27;20137;-64
2022/08/18 10:42:42;;;;;;;;;;;22.70;99.90;;;;;;5091060;28;19912;-65
2022/08/18 10:45:14;;;;;;;;;;;22.80;99.90;;;;;;5090532;28;19919;-64
2022/08/18 10:47:41;;;;;;;;;;;23.00;99.90;;;;;;5091018;28;19919;-64
2022/08/18 10:50:16;;;;;;;;;;;22.70;99.90;;;;;;5090275;28;20427;-65
2022/08/18 10:52:49;;;;;;;;;;;23.10;99.90;;;;;;5074778;28;19923;-64
2022/08/18 10:55:20;;;;;;;;;;;23.20;99.90;;;;;;5090766;28;19919;-64
2022/08/18 10:58:06;;;;;;;;;;;23.00;99.90;;;;;;5090495;28;19920;-64
2022/08/18 11:00:42;;;;;;;;;;;22.90;99.90;;;;;;5090244;28;19958;-65
2022/08/18 11:03:13;;;;;;;;;;;23.10;99.90;;;;;;5090754;28;20378;-64
2022/08/18 11:05:39;;;;;;;;;;;23.30;99.90;;;;;;5089148;28;19912;-64
2022/08/18 11:08:06;;;;;;;;;;;23.20;99.90;;;;;;5090303;28;19958;-65
2022/08/18 11:10:43;;;;;;;;;;;23.40;99.90;;;;;;5088213;28;20090;-65
2022/08/18 11:13:13;;;;;;;;;;;23.60;99.90;;;;;;5080214;28;19919;-64
2022/08/18 11:15:59;;;;;;;;;;;23.40;99.90;;;;;;5078821;28;19920;-65
2022/08/18 11:18:41;;;;;;;;;;;23.50;99.90;;;;;;5081193;28;19970;-66
2022/08/18 11:21:26;;;;;;;;;;;23.60;99.90;;;;;;5080892;28;20298;-64
2022/08/18 11:24:12;;;;;;;;;;;23.90;99.90;;;;;;5080047;28;20385;-66
2022/08/18 11:26:39;;;;;;;;;;;24.20;99.90;;;;;;5080459;28;19912;-65
2022/08/18 11:29:25;;;;;;;;;;;24.40;99.90;;;;;;5087387;28;19912;-65
2022/08/18 11:31:54;;;;;;;;;;;24.50;99.90;;;;;;5071573;28;19932;-65
2022/08/18 11:34:24;;;;;;;;;;;25.20;99.90;;;;;;5080276;28;19921;-65
2022/08/18 11:36:50;;;;;;;;;;;;;;;;;;5086443;28;19967;-65
2022/08/18 11:39:15;;;;;;;;;;;25.50;99.90;;;;;;5101078;28;19967;-65
2022/08/18 11:41:44;;;;;;;;;;;25.50;99.90;;;;;;5108486;28;19908;-65
2022/08/18 11:44:15;;;;;;;;;;;25.60;99.90;;;;;;5098607;28;19957;-65
2022/08/18 11:46:41;;;;;;;;;;;25.30;99.90;;;;;;5107159;28;20418;-65
2022/08/18 11:49:15;;;;;;;;;;;25.30;99.90;;;;;;5102947;28;20044;-65
2022/08/18 11:51:52;;;;;;;;;;;25.00;99.90;;;;;;5086249;28;19923;-65
2022/08/18 11:54:20;;;;;;;;;;;25.20;99.90;;;;;;5092946;28;19913;-65
2022/08/18 11:56:46;;;;;;;;;;;25.60;99.90;;;;;;5094883;28;20018;-65
2022/08/18 12:02:06;;;;;;;;;;;25.10;99.90;;;;;;5060508;28;19921;-66
2022/08/18 12:04:37;;;;;;;;;;;25.30;99.90;;;;;;5054835;28;19913;-65
2022/08/18 12:07:05;;;;;;;;;;;26.20;99.90;;;;;;5057736;28;20005;-65
2022/08/18 12:09:34;;;;;;;;;;;26.40;99.90;;;;;;5055224;28;20386;-66
2022/08/18 12:12:21;;;;;;;;;;;26.50;99.90;;;;;;5046687;28;19913;-65
2022/08/18 12:14:53;;;;;;;;;;;26.60;99.90;;;;;;5047644;28;19982;-65
2022/08/18 12:17:19;;;;;;;;;;;26.40;99.90;;;;;;5046336;28;20320;-65
2022/08/18 12:19:44;;;;;;;;;;;26.20;99.90;;;;;;5048217;28;19967;-65
2022/08/18 12:22:17;;;;;;;;;;;26.50;99.90;;;;;;5050640;28;19915;-65
2022/08/18 12:24:42;;;;;;;;;;;26.50;99.90;;;;;;5044097;28;19916;-66
2022/08/18 12:27:08;;;;;;;;;;;26.60;99.90;;;;;;5043706;28;19920;-65
2022/08/18 12:29:33;;;;;;;;;;;26.70;99.90;;;;;;5050016;28;19913;-66
2022/08/18 12:31:59;;;;;;;;;;;26.30;99.90;;;;;;5050133;28;19913;-66
2022/08/18 12:34:26;;;;;;;;;;;26.20;99.90;;;;;;5049587;28;19913;-66
2022/08/18 12:36:53;;;;;;;;;;;25.90;99.90;;;;;;5049722;28;19917;-66
2022/08/18 12:39:18;;;;;;;;;;;26.00;99.90;;;;;;5045100;28;19920;-65
2022/08/18 12:41:44;;;;;;;;;;;25.60;99.90;;;;;;5044642;28;19917;-65
2022/08/18 12:44:09;;;;;;;;;;;25.70;99.90;;;;;;5049903;28;19960;-65
2022/08/18 12:46:35;;;;;;;;;;;25.40;99.90;;;;;;5051643;28;19913;-65
2022/08/18 12:49:02;;;;;;;;;;;25.30;99.90;;;;;;5049242;28;20003;-65
2022/08/18 12:51:28;;;;;;;;;;;25.50;99.90;;;;;;5057024;28;20379;-66
2022/08/18 12:53:53;;;;;;;;;;;25.60;99.90;;;;;;5055415;28;19916;-65
2022/08/18 12:56:21;;;;;;;;;;;25.80;99.90;;;;;;5049093;28;20437;-65
2022/08/18 12:58:48;;;;;;;;;;;26.00;99.90;;;;;;5048312;28;19923;-67
2022/08/18 13:01:14;;;;;;;;;;;25.90;99.90;;;;;;5061449;28;19921;-65
2022/08/18 13:03:40;;;;;;;;;;;25.70;99.90;;;;;;5063656;28;20371;-65
2022/08/18 13:06:05;;;;;;;;;;;25.80;99.90;;;;;;5068665;28;19959;-65
2022/08/18 13:08:31;;;;;;;;;;;25.60;99.90;;;;;;5068456;28;19913;-65
2022/08/18 13:10:59;;;;;;;;;;;25.30;99.90;;;;;;5068404;28;19960;-65
2022/08/18 13:13:25;;;;;;;;;;;25.10;99.90;;;;;;5045822;28;19958;-65
2022/08/18 13:15:53;;;;;;;;;;;25.10;99.90;;;;;;5038131;28;19996;-65
2022/08/18 13:18:18;;;;;;;;;;;25.20;99.90;;;;;;5054340;28;20293;-65
2022/08/18 13:20:44;;;;;;;;;;;25.50;99.90;;;;;;5054885;28;19917;-65
2022/08/18 13:23:09;;;;;;;;;;;25.60;99.90;;;;;;5055842;28;19913;-65
2022/08/18 13:25:35;;;;;;;;;;;26.10;99.90;;;;;;5055493;28;19948;-65
2022/08/18 13:28:01;;;;;;;;;;;26.40;99.90;;;;;;5055445;28;20011;-65
2022/08/18 13:30:26;;;;;;;;;;;26.60;99.90;;;;;;5055883;28;19917;-64
2022/08/18 13:32:52;;;;;;;;;;;26.70;99.90;;;;;;5055964;28;19912;-65
2022/08/18 13:35:17;;;;;;;;;;;26.90;99.90;;;;;;5055487;28;20022;-65
2022/08/18 13:37:43;;;;;;;;;;;26.50;99.90;;;;;;5055167;28;19913;-64
2022/08/18 13:40:09;;;;;;;;;;;26.40;99.90;;;;;;5055486;28;19963;-65
2022/08/18 13:42:45;;;;;;;;;;;26.40;99.90;;;;;;5055418;28;20414;-65
2022/08/18 13:45:13;;;;;;;;;;;26.60;99.90;;;;;;5055704;28;19920;-65
2022/08/18 13:47:38;;;;;;;;;;;26.90;99.90;;;;;;5055505;28;20020;-65
2022/08/18 13:50:04;;;;;;;;;;;26.70;99.90;;;;;;5054500;28;19951;-65
2022/08/18 13:52:31;;;;;;;;;;;26.90;99.90;;;;;;5055592;28;19913;-65
2022/08/18 13:54:56;;;;;;;;;;;27.30;99.90;;;;;;5055277;28;20287;-65
2022/08/18 13:57:22;;;;;;;;;;;27.00;99.90;;;;;;5055222;28;19913;-65
2022/08/18 13:59:47;;;;;;;;;;;27.10;99.90;;;;;;5054820;28;19928;-65
2022/08/18 14:02:13;;;;;;;;;;;26.90;99.90;;;;;;5060057;28;20423;-65
2022/08/18 14:04:39;;;;;;;;;;;27.10;99.90;;;;;;5053509;28;19986;-66
2022/08/18 14:07:05;;;;;;;;;;;27.20;99.90;;;;;;5052841;28;19913;-65
2022/08/18 14:09:31;;;;;;;;;;;27.10;99.90;;;;;;5053023;28;19913;-65
2022/08/18 14:11:57;;;;;;;;;;;27.00;99.90;;;;;;5053788;28;20023;-65
2022/08/18 14:14:23;;;;;;;;;;;26.80;99.90;;;;;;5054571;28;19913;-65
2022/08/18 14:16:48;;;;;;;;;;;26.50;99.90;;;;;;5054662;28;20389;-65
2022/08/18 14:27:33;;;;;;;;;;;26.40;99.90;;;;;;5045436;28;20367;-65
2022/08/18 14:30:00;;;;;;;;;;;26.50;99.90;;;;;;5053134;28;20059;-65
2022/08/18 14:32:28;;;;;;;;;;;26.60;99.90;;;;;;5052576;28;19944;-65
2022/08/18 14:34:54;;;;;;;;;;;26.50;99.90;;;;;;5057551;28;19917;-65
2022/08/18 14:37:20;;;;;;;;;;;26.40;99.90;;;;;;5052578;28;20318;-65
2022/08/18 14:39:45;;;;;;;;;;;26.20;99.90;;;;;;5053896;28;19939;-65
2022/08/18 14:42:13;;;;;;;;;;;26.40;99.90;;;;;;5056525;28;19938;-65
2022/08/18 14:44:38;;;;;;;;;;;26.50;99.90;;;;;;5068559;28;20363;-65
2022/08/18 14:47:04;;;;;;;;;;;26.30;99.90;;;;;;5061774;28;19919;-66
2022/08/18 14:49:30;;;;;;;;;;;26.40;99.90;;;;;;5036299;28;19908;-65
2022/08/18 14:51:57;;;;;;;;;;;26.40;99.90;;;;;;5053945;28;20417;-65
2022/08/18 14:54:23;;;;;;;;;;;26.20;99.90;;;;;;5053719;28;19990;-65
2022/08/18 14:56:49;;;;;;;;;;;26.10;99.90;;;;;;5053581;28;20366;-64
2022/08/18 14:59:15;;;;;;;;;;;26.20;99.90;;;;;;5054484;28;20275;-64
2022/08/18 15:01:42;;;;;;;;;;;26.10;99.90;;;;;;5035795;28;20366;-64
2022/08/18 15:04:09;;;;;;;;;;;25.90;99.90;;;;;;5054513;28;20009;-65
2022/08/18 15:06:35;;;;;;;;;;;26.10;99.90;;;;;;5055285;28;19916;-65
2022/08/18 15:09:00;;;;;;;;;;;26.20;99.90;;;;;;5058908;28;20207;-64
2022/08/18 15:11:28;;;;;;;;;;;26.20;99.90;;;;;;5074032;28;20003;-64